createdAt,value
2023-05-22T00:00:35.488Z,53.80
2023-05-22T00:01:37.969Z,53.70
2023-05-22T00:02:43.166Z,53.70
2023-05-22T00:03:46.469Z,53.70
2023-05-22T00:04:48.955Z,53.70
2023-05-22T00:05:54.575Z,53.60
2023-05-22T00:06:57.014Z,53.60
2023-05-22T00:08:00.202Z,53.60
2023-05-22T00:09:02.673Z,53.50
2023-05-22T00:10:07.007Z,53.50
2023-05-22T00:11:12.006Z,53.50
2023-05-22T00:12:14.358Z,53.70
2023-05-22T00:13:16.795Z,53.70
2023-05-22T00:14:19.310Z,53.90
2023-05-22T00:15:22.198Z,54.00
2023-05-22T00:16:25.303Z,54.10
2023-05-22T00:17:30.681Z,54.30
2023-05-22T00:18:33.127Z,54.30
2023-05-22T00:19:35.762Z,54.40
2023-05-22T00:20:39.440Z,54.50
2023-05-22T00:21:43.079Z,54.50
2023-05-22T00:22:45.655Z,54.50
2023-05-22T00:23:47.986Z,54.50
2023-05-22T00:24:50.521Z,54.50
2023-05-22T00:25:53.004Z,54.60
2023-05-22T00:26:55.351Z,54.60
2023-05-22T00:27:58.186Z,54.50
2023-05-22T00:29:01.629Z,54.80
2023-05-22T00:30:05.979Z,54.10
2023-05-22T00:31:09.025Z,53.90
2023-05-22T00:32:11.684Z,53.80
2023-05-22T00:33:14.096Z,53.80
2023-05-22T00:34:16.468Z,53.80
2023-05-22T00:35:19.414Z,53.80
2023-05-22T00:36:22.271Z,53.80
2023-05-22T00:37:25.570Z,53.80
2023-05-22T00:38:32.869Z,53.70
2023-05-22T00:39:35.403Z,53.60
2023-05-22T00:40:38.111Z,53.50
2023-05-22T00:41:41.260Z,53.50
2023-05-22T00:42:47.003Z,53.60
2023-05-22T00:43:50.976Z,53.70
2023-05-22T00:44:53.496Z,53.80
2023-05-22T00:45:58.504Z,53.80
2023-05-22T00:47:02.271Z,53.70
2023-05-22T00:48:04.895Z,53.70
2023-05-22T00:49:07.365Z,53.70
2023-05-22T00:50:11.784Z,53.80
2023-05-22T00:51:15.355Z,53.30
2023-05-22T00:52:17.764Z,53.20
2023-05-22T00:53:22.215Z,53.30
2023-05-22T00:54:25.304Z,53.30
2023-05-22T00:55:27.727Z,53.30
2023-05-22T00:56:30.527Z,53.40
2023-05-22T00:57:33.939Z,53.40
2023-05-22T00:58:37.570Z,53.50
2023-05-22T00:59:40.219Z,53.60
2023-05-22T01:00:43.267Z,53.70
2023-05-22T01:01:46.427Z,53.80
2023-05-22T01:02:49.455Z,53.80
2023-05-22T01:03:53.921Z,53.90
2023-05-22T01:04:57.871Z,54.00
2023-05-22T01:06:01.147Z,54.10
2023-05-22T01:07:06.090Z,54.10
2023-05-22T01:08:09.595Z,53.90
2023-05-22T01:09:14.759Z,53.70
2023-05-22T01:10:17.568Z,53.50
2023-05-22T01:11:31.542Z,53.30
2023-05-22T01:13:02.168Z,53.10
2023-05-22T01:14:10.883Z,53.10
2023-05-22T01:15:34.799Z,53.10
2023-05-22T01:16:46.468Z,53.10
2023-05-22T01:18:19.593Z,53.10
2023-05-22T01:19:53.879Z,53.20
2023-05-22T01:21:00.014Z,53.20
2023-05-22T01:22:17.469Z,53.20
2023-05-22T01:23:21.349Z,53.20
2023-05-22T01:24:44.685Z,53.20
2023-05-22T01:26:03.545Z,53.20
2023-05-22T01:27:25.743Z,53.20
2023-05-22T01:28:40.994Z,53.00
2023-05-22T01:30:18.511Z,53.20
2023-05-22T01:31:26.257Z,52.90
2023-05-22T01:32:31.135Z,53.00
2023-05-22T01:33:58.862Z,53.10
2023-05-22T01:35:03.589Z,53.00
2023-05-22T01:36:08.968Z,52.90
2023-05-22T01:37:13.856Z,52.90
2023-05-22T01:38:17.169Z,52.90
2023-05-22T01:39:20.431Z,52.90
2023-05-22T01:40:23.778Z,52.90
2023-05-22T01:41:27.584Z,52.90
2023-05-22T01:42:30.117Z,52.90
2023-05-22T01:43:32.558Z,52.80
2023-05-22T01:44:35.924Z,52.90
2023-05-22T01:45:38.694Z,52.80
2023-05-22T01:46:41.977Z,52.80
2023-05-22T01:47:44.647Z,52.80
2023-05-22T01:48:47.065Z,52.60
2023-05-22T01:49:50.137Z,52.70
2023-05-22T01:50:54.807Z,52.70
2023-05-22T01:52:12.098Z,52.60
2023-05-22T01:53:24.066Z,52.60
2023-05-22T01:54:32.880Z,52.60
2023-05-22T01:55:47.455Z,52.60
2023-05-22T01:56:59.102Z,52.80
2023-05-22T01:58:35.758Z,52.80
2023-05-22T01:59:54.451Z,52.70
2023-05-22T02:01:00.834Z,52.70
2023-05-22T02:02:07.391Z,52.60
2023-05-22T02:03:17.058Z,52.60
2023-05-22T02:04:22.605Z,52.60
2023-05-22T02:05:27.816Z,52.60
2023-05-22T02:06:33.089Z,52.60
2023-05-22T02:07:39.412Z,52.60
2023-05-22T02:08:42.903Z,52.60
2023-05-22T02:09:47.259Z,52.60
2023-05-22T02:10:52.181Z,52.50
2023-05-22T02:12:00.632Z,52.50
2023-05-22T02:13:04.733Z,52.50
2023-05-22T02:14:12.038Z,52.50
2023-05-22T02:15:15.321Z,52.40
2023-05-22T02:16:19.233Z,52.40
2023-05-22T02:17:22.121Z,52.30
2023-05-22T02:18:31.635Z,52.30
2023-05-22T02:19:36.059Z,52.30
2023-05-22T02:20:39.316Z,52.30
2023-05-22T02:21:42.124Z,52.30
2023-05-22T02:22:47.385Z,52.30
2023-05-22T02:23:50.126Z,52.30
2023-05-22T02:24:53.845Z,52.20
2023-05-22T02:25:56.293Z,52.20
2023-05-22T02:26:58.703Z,52.10
2023-05-22T02:28:01.263Z,52.10
2023-05-22T02:29:04.038Z,52.10
2023-05-22T02:30:08.252Z,52.10
2023-05-22T02:31:10.732Z,52.20
2023-05-22T02:32:15.648Z,52.20
2023-05-22T02:33:18.565Z,52.10
2023-05-22T02:34:20.987Z,52.20
2023-05-22T02:35:23.458Z,52.10
2023-05-22T02:36:27.572Z,52.10
2023-05-22T02:37:30.161Z,52.20
2023-05-22T02:38:32.682Z,52.10
2023-05-22T02:39:36.378Z,52.00
2023-05-22T02:40:39.023Z,52.10
2023-05-22T02:41:42.096Z,52.10
2023-05-22T02:42:44.450Z,52.00
2023-05-22T02:43:47.544Z,52.00
2023-05-22T02:44:49.989Z,52.00
2023-05-22T02:45:52.486Z,51.90
2023-05-22T02:46:55.035Z,52.10
2023-05-22T02:47:58.318Z,51.90
2023-05-22T02:49:01.066Z,51.90
2023-05-22T02:50:06.849Z,51.90
2023-05-22T02:51:10.273Z,51.90
2023-05-22T02:52:12.867Z,51.90
2023-05-22T02:53:17.195Z,51.90
2023-05-22T02:54:20.012Z,51.90
2023-05-22T02:55:22.980Z,51.90
2023-05-22T02:56:27.842Z,51.90
2023-05-22T02:57:30.958Z,51.80
2023-05-22T02:58:34.906Z,51.70
2023-05-22T02:59:37.345Z,51.80
2023-05-22T03:00:40.337Z,51.90
2023-05-22T03:01:44.399Z,51.80
2023-05-22T03:02:47.278Z,51.80
2023-05-22T03:03:51.241Z,51.80
2023-05-22T03:04:53.814Z,51.70
2023-05-22T03:05:58.501Z,51.70
2023-05-22T03:07:01.673Z,51.90
2023-05-22T03:08:04.172Z,52.00
2023-05-22T03:09:06.709Z,51.90
2023-05-22T03:10:09.249Z,51.80
2023-05-22T03:11:11.980Z,51.80
2023-05-22T03:12:14.372Z,51.80
2023-05-22T03:13:17.016Z,51.70
2023-05-22T03:14:19.460Z,52.20
2023-05-22T03:15:21.869Z,51.70
2023-05-22T03:16:26.783Z,51.70
2023-05-22T03:17:30.027Z,51.70
2023-05-22T03:18:32.494Z,51.70
2023-05-22T03:19:34.868Z,51.70
2023-05-22T03:20:37.467Z,51.80
2023-05-22T03:21:41.687Z,51.70
2023-05-22T03:22:45.772Z,52.00
2023-05-22T03:23:49.290Z,51.70
2023-05-22T03:24:52.307Z,51.80
2023-05-22T03:25:55.211Z,52.00
2023-05-22T03:27:01.369Z,52.00
2023-05-22T03:28:14.879Z,52.00
2023-05-22T03:29:18.006Z,52.00
2023-05-22T03:30:20.589Z,52.10
2023-05-22T03:31:36.681Z,52.40
2023-05-22T03:32:42.503Z,52.60
2023-05-22T03:33:44.938Z,52.50
2023-05-22T03:34:47.881Z,52.40
2023-05-22T03:35:50.797Z,52.70
2023-05-22T03:36:54.111Z,52.20
2023-05-22T03:37:56.710Z,52.20
2023-05-22T03:38:59.411Z,52.50
2023-05-22T03:40:04.150Z,52.10
2023-05-22T03:41:07.776Z,52.00
2023-05-22T03:42:11.007Z,52.00
2023-05-22T03:43:13.403Z,51.80
2023-05-22T03:44:16.324Z,51.80
2023-05-22T03:45:19.281Z,51.90
2023-05-22T03:46:23.324Z,51.80
2023-05-22T03:47:25.922Z,51.70
2023-05-22T03:48:28.371Z,51.80
2023-05-22T03:49:31.006Z,51.90
2023-05-22T03:52:50.656Z,51.40
2023-05-22T03:53:53.113Z,51.60
2023-05-22T03:54:55.866Z,51.70
2023-05-22T03:55:58.953Z,51.90
2023-05-22T03:57:01.459Z,51.90
2023-05-22T03:58:03.906Z,51.80
2023-05-22T03:59:06.821Z,51.90
2023-05-22T04:39:40.317Z,54.00
2023-05-22T04:40:44.552Z,53.90
2023-05-22T04:41:47.783Z,54.10
2023-05-22T04:42:50.289Z,54.10
2023-05-22T04:43:54.558Z,54.20
2023-05-22T04:44:58.092Z,54.60
2023-05-22T04:46:00.626Z,54.70
2023-05-22T04:47:05.398Z,54.80
2023-05-22T04:48:11.955Z,55.00
2023-05-22T04:49:14.558Z,55.10
2023-05-22T04:50:16.974Z,55.10
2023-05-22T05:21:39.717Z,54.90
2023-05-22T05:22:44.025Z,54.90
2023-05-22T05:23:46.556Z,54.90
2023-05-22T05:24:49.228Z,54.90
2023-05-22T05:25:52.317Z,55.00
2023-05-22T05:26:55.721Z,55.00
2023-05-22T05:27:58.153Z,55.20
2023-05-22T05:29:00.989Z,54.90
2023-05-22T05:30:11.763Z,55.20
2023-05-22T05:31:29.000Z,55.20
2023-05-22T05:32:51.828Z,55.10
2023-05-22T05:34:00.823Z,55.20
2023-05-22T05:35:07.867Z,55.50
2023-05-22T05:36:27.060Z,55.70
2023-05-22T05:37:31.015Z,56.00
2023-05-22T05:38:35.884Z,56.20
2023-05-22T05:39:38.280Z,56.30
2023-05-22T05:40:43.771Z,56.20
2023-05-22T05:41:47.132Z,56.30
2023-05-22T05:42:49.809Z,56.30
2023-05-22T05:43:57.345Z,56.10
2023-05-22T05:45:01.239Z,56.10
2023-05-22T05:46:06.438Z,56.30
2023-05-22T05:47:09.211Z,56.10
2023-05-22T05:48:12.591Z,56.20
2023-05-22T05:49:20.314Z,56.10
2023-05-22T05:50:23.726Z,56.00
2023-05-22T05:51:26.598Z,56.40
2023-05-22T05:52:32.785Z,56.50
2023-05-22T05:53:37.733Z,56.70
2023-05-22T05:54:46.735Z,56.40
2023-05-22T05:55:51.633Z,56.60
2023-05-22T05:56:54.553Z,56.50
2023-05-22T05:57:57.014Z,56.30
2023-05-22T05:59:22.223Z,56.30
2023-05-22T06:00:42.895Z,56.00
2023-05-22T06:01:47.098Z,56.30
2023-05-22T06:02:55.889Z,56.30
2023-05-22T06:04:08.999Z,56.40
2023-05-22T06:05:15.334Z,56.50
2023-05-22T06:06:18.242Z,56.70
2023-05-22T06:07:40.040Z,56.70
2023-05-22T06:08:44.438Z,56.10
2023-05-22T06:09:46.938Z,56.20
2023-05-22T06:10:57.433Z,56.30
2023-05-22T06:12:13.164Z,56.10
2023-05-22T06:13:19.039Z,56.70
2023-05-22T06:14:21.566Z,56.50
2023-05-22T06:15:24.019Z,56.50
2023-05-22T06:16:26.643Z,56.40
2023-05-22T06:17:29.152Z,56.50
2023-05-22T06:18:31.636Z,56.70
2023-05-22T06:19:34.176Z,56.70
2023-05-22T06:20:36.920Z,56.70
2023-05-22T06:21:39.507Z,56.80
2023-05-22T06:22:41.930Z,57.00
2023-05-22T06:23:44.881Z,57.50
2023-05-22T06:24:47.322Z,57.40
2023-05-22T06:25:54.547Z,57.40
2023-05-22T06:26:57.161Z,57.50
2023-05-22T06:28:00.819Z,57.60
2023-05-22T06:29:03.414Z,57.70
2023-05-22T06:30:08.766Z,57.50
2023-05-22T06:31:14.459Z,57.20
2023-05-22T06:32:20.212Z,57.50
2023-05-22T06:33:24.410Z,57.60
2023-05-22T06:34:27.933Z,57.50
2023-05-22T06:35:31.723Z,57.50
2023-05-22T06:36:34.729Z,57.50
2023-05-22T06:37:38.489Z,57.20
2023-05-22T06:38:41.540Z,57.30
2023-05-22T06:39:54.141Z,57.50
2023-05-22T06:41:15.632Z,57.30
2023-05-22T06:42:18.095Z,57.50
2023-05-22T06:43:43.842Z,57.30
2023-05-22T06:44:49.244Z,57.00
2023-05-22T06:45:51.660Z,57.50
2023-05-22T06:46:57.409Z,57.90
2023-05-22T06:48:01.173Z,57.60
2023-05-22T06:49:04.125Z,58.00
2023-05-22T06:50:22.684Z,56.80
2023-05-22T06:51:26.358Z,57.40
2023-05-22T06:52:39.020Z,57.80
2023-05-22T06:53:42.701Z,57.90
2023-05-22T06:54:52.459Z,57.70
2023-05-22T06:55:54.981Z,56.80
2023-05-22T06:57:07.338Z,57.10
2023-05-22T06:58:09.795Z,57.00
2023-05-22T06:59:12.354Z,57.50
2023-05-22T07:00:37.835Z,57.40
2023-05-22T07:01:46.996Z,57.10
2023-05-22T07:02:54.705Z,57.10
2023-05-22T07:04:05.128Z,57.40
2023-05-22T07:05:27.985Z,58.00
2023-05-22T07:06:39.382Z,57.80
2023-05-22T07:07:43.414Z,58.00
2023-05-22T07:08:45.711Z,57.60
2023-05-22T07:09:48.156Z,56.40
2023-05-22T07:10:51.651Z,56.60
2023-05-22T07:11:54.181Z,56.30
2023-05-22T07:12:56.804Z,56.80
2023-05-22T07:13:59.268Z,56.90
2023-05-22T07:15:01.821Z,56.80
2023-05-22T07:16:06.386Z,57.00
2023-05-22T07:17:10.020Z,57.10
2023-05-22T07:18:17.323Z,57.20
2023-05-22T07:19:21.385Z,56.60
2023-05-22T07:20:26.709Z,56.10
2023-05-22T07:21:40.471Z,56.70
2023-05-22T07:22:43.671Z,55.90
2023-05-22T07:23:46.201Z,56.50
2023-05-22T07:24:48.949Z,55.90
2023-05-22T07:25:53.335Z,56.30
2023-05-22T07:26:58.469Z,56.30
2023-05-22T07:28:04.016Z,56.40
2023-05-22T07:29:06.644Z,57.00
2023-05-22T07:30:10.205Z,57.30
2023-05-22T07:31:15.354Z,56.30
2023-05-22T07:32:17.777Z,56.40
2023-05-22T07:33:20.470Z,55.70
2023-05-22T07:34:23.267Z,56.50
2023-05-22T07:35:25.918Z,56.80
2023-05-22T07:36:28.577Z,56.60
2023-05-22T07:37:31.692Z,56.60
2023-05-22T07:38:34.834Z,56.10
2023-05-22T07:39:38.596Z,56.60
2023-05-22T07:40:41.904Z,56.20
2023-05-22T07:41:50.096Z,56.80
2023-05-22T07:42:53.544Z,56.70
2023-05-22T07:43:57.363Z,56.40
2023-05-22T07:45:05.267Z,56.20
2023-05-22T07:46:09.440Z,55.80
2023-05-22T07:47:26.005Z,56.10
2023-05-22T07:48:29.150Z,56.20
2023-05-22T07:49:31.619Z,57.00
2023-05-22T07:50:34.073Z,57.40
2023-05-22T07:51:36.703Z,56.70
2023-05-22T07:52:39.176Z,56.20
2023-05-22T07:53:42.292Z,55.40
2023-05-22T07:54:45.632Z,56.20
2023-05-22T07:55:49.000Z,55.30
2023-05-22T07:56:52.513Z,56.30
2023-05-22T07:57:56.863Z,54.90
2023-05-22T07:59:07.528Z,55.10
2023-05-22T08:00:13.646Z,56.00
2023-05-22T08:01:16.439Z,55.50
2023-05-22T08:02:19.026Z,57.00
2023-05-22T08:03:23.789Z,56.60
2023-05-22T08:04:27.479Z,57.00
2023-05-22T08:05:30.643Z,57.70
2023-05-22T08:06:34.985Z,56.50
2023-05-22T08:07:38.475Z,56.40
2023-05-22T08:08:41.467Z,55.60
2023-05-22T08:09:46.084Z,56.40
2023-05-22T08:11:03.045Z,56.40
2023-05-22T08:12:07.522Z,55.90
2023-05-22T08:13:10.490Z,56.30
2023-05-22T08:14:12.923Z,56.30
2023-05-22T08:15:15.494Z,56.10
2023-05-22T08:16:18.497Z,56.40
2023-05-22T08:17:20.952Z,55.90
2023-05-22T08:18:23.400Z,55.90
2023-05-22T08:19:25.882Z,56.10
2023-05-22T08:20:28.598Z,56.10
2023-05-22T08:21:34.440Z,56.00
2023-05-22T08:22:39.075Z,56.00
2023-05-22T08:23:41.480Z,55.70
2023-05-22T08:24:43.864Z,55.30
2023-05-22T08:25:46.266Z,55.10
2023-05-22T08:26:49.391Z,56.40
2023-05-22T08:27:52.078Z,55.70
2023-05-22T08:28:54.731Z,55.90
2023-05-22T08:29:57.390Z,55.70
2023-05-22T08:30:59.751Z,55.90
2023-05-22T08:32:02.451Z,55.70
2023-05-22T08:33:05.637Z,55.20
2023-05-22T08:34:10.479Z,55.60
2023-05-22T08:35:14.255Z,55.90
2023-05-22T08:36:16.856Z,56.50
2023-05-22T08:37:19.255Z,56.10
2023-05-22T08:38:21.914Z,56.70
2023-05-22T08:39:24.628Z,56.30
2023-05-22T08:40:37.117Z,55.60
2023-05-22T08:41:40.384Z,55.50
2023-05-22T08:42:43.478Z,55.60
2023-05-22T08:43:46.396Z,55.60
2023-05-22T08:44:49.876Z,55.30
2023-05-22T08:46:05.737Z,57.20
2023-05-22T08:47:14.003Z,56.10
2023-05-22T08:48:19.539Z,55.60
2023-05-22T08:49:24.451Z,55.50
2023-05-22T08:50:27.846Z,55.90
2023-05-22T08:51:34.243Z,56.80
2023-05-22T08:52:50.752Z,56.00
2023-05-22T08:53:55.748Z,55.50
2023-05-22T08:54:59.504Z,55.70
2023-05-22T08:56:04.315Z,55.40
2023-05-22T08:57:06.908Z,55.50
2023-05-22T08:58:11.195Z,56.10
2023-05-22T08:59:13.874Z,55.60
2023-05-22T09:00:20.135Z,55.60
2023-05-22T09:01:24.114Z,55.10
2023-05-22T09:02:27.146Z,55.50
2023-05-22T09:03:34.945Z,55.40
2023-05-22T09:04:37.487Z,55.00
2023-05-22T09:05:41.311Z,54.90
2023-05-22T09:06:46.710Z,55.10
2023-05-22T09:07:49.956Z,56.50
2023-05-22T09:08:53.363Z,55.80
2023-05-22T09:09:56.750Z,55.60
2023-05-22T09:10:59.834Z,56.10
2023-05-22T09:12:02.400Z,55.80
2023-05-22T09:13:05.486Z,55.30
2023-05-22T09:14:09.438Z,55.40
2023-05-22T09:15:12.268Z,55.10
2023-05-22T09:16:15.870Z,54.80
2023-05-22T09:17:21.456Z,55.30
2023-05-22T09:18:27.606Z,55.40
2023-05-22T09:19:30.411Z,55.00
2023-05-22T09:20:38.444Z,55.60
2023-05-22T09:21:42.235Z,55.10
2023-05-22T09:22:47.430Z,57.70
2023-05-22T09:23:50.967Z,57.50
2023-05-22T09:24:59.349Z,57.60
2023-05-22T09:26:03.660Z,57.00
2023-05-22T09:27:10.305Z,57.20
2023-05-22T09:28:13.336Z,57.50
2023-05-22T09:29:15.808Z,56.50
2023-05-22T09:30:19.779Z,56.10
2023-05-22T09:31:22.357Z,55.80
2023-05-22T09:32:25.016Z,57.90
2023-05-22T09:33:29.644Z,56.80
2023-05-22T09:34:32.856Z,57.70
2023-05-22T09:35:39.552Z,57.30
2023-05-22T09:36:42.523Z,56.60
2023-05-22T09:37:45.237Z,56.80
2023-05-22T09:38:48.339Z,56.50
2023-05-22T09:39:55.031Z,57.50
2023-05-22T09:40:57.524Z,56.90
2023-05-22T09:42:01.618Z,57.00
2023-05-22T09:43:10.945Z,56.10
2023-05-22T09:44:14.544Z,56.00
2023-05-22T09:45:21.108Z,57.40
2023-05-22T09:46:23.688Z,57.00
2023-05-22T09:47:26.444Z,57.00
2023-05-22T09:48:28.899Z,56.90
2023-05-22T09:49:31.349Z,56.70
2023-05-22T09:50:33.848Z,56.10
2023-05-22T09:51:40.141Z,56.10
2023-05-22T09:52:44.980Z,56.50
2023-05-22T09:53:49.307Z,56.30
2023-05-22T09:54:55.239Z,56.20
2023-05-22T09:56:00.158Z,56.10
2023-05-22T09:57:08.042Z,56.00
2023-05-22T09:58:18.545Z,55.90
2023-05-22T09:59:26.730Z,55.90
2023-05-22T10:00:29.409Z,55.70
2023-05-22T10:01:34.183Z,55.90
2023-05-22T10:02:38.177Z,55.60
2023-05-22T10:03:43.254Z,55.80
2023-05-22T10:04:50.265Z,55.50
2023-05-22T10:05:55.700Z,55.50
2023-05-22T10:06:59.994Z,55.30
2023-05-22T10:08:14.897Z,55.60
2023-05-22T10:09:24.057Z,56.90
2023-05-22T10:10:26.576Z,56.60
2023-05-22T10:11:31.756Z,56.50
2023-05-22T10:12:44.643Z,55.70
2023-05-22T10:13:48.109Z,55.90
2023-05-22T10:14:50.942Z,55.20
2023-05-22T10:15:55.161Z,55.50
2023-05-22T10:17:02.002Z,55.70
2023-05-22T10:18:05.042Z,55.30
2023-05-22T10:19:08.323Z,55.20
2023-05-22T10:20:12.153Z,55.40
2023-05-22T10:21:16.508Z,54.80
2023-05-22T10:22:22.908Z,57.50
2023-05-22T10:23:26.671Z,56.50
2023-05-22T10:24:30.024Z,56.10
2023-05-22T10:25:34.708Z,56.00
2023-05-22T10:26:38.632Z,55.80
2023-05-22T10:27:41.545Z,56.20
2023-05-22T10:28:51.478Z,56.10
2023-05-22T10:30:15.992Z,55.80
2023-05-22T10:31:45.915Z,55.60
2023-05-22T10:33:04.693Z,55.20
2023-05-22T10:34:12.849Z,55.30
2023-05-22T10:35:20.759Z,55.30
2023-05-22T10:36:47.656Z,56.50
2023-05-22T10:37:54.912Z,56.20
2023-05-22T10:38:57.624Z,55.90
2023-05-22T10:40:08.557Z,56.00
2023-05-22T10:41:11.516Z,55.70
2023-05-22T10:42:14.362Z,55.50
2023-05-22T10:43:17.421Z,55.60
2023-05-22T10:44:21.855Z,55.50
2023-05-22T10:45:27.092Z,55.50
2023-05-22T10:46:34.347Z,55.60
2023-05-22T10:47:39.144Z,55.30
2023-05-22T10:48:48.451Z,55.70
2023-05-22T10:50:06.628Z,56.30
2023-05-22T10:51:09.555Z,55.90
2023-05-22T10:52:14.575Z,55.70
2023-05-22T10:53:25.063Z,55.60
2023-05-22T10:54:44.286Z,56.90
2023-05-22T10:55:50.960Z,56.90
2023-05-22T10:57:17.152Z,55.90
2023-05-22T10:58:33.672Z,55.70
2023-05-22T10:59:36.175Z,55.60
2023-05-22T11:00:38.731Z,56.10
2023-05-22T11:01:43.978Z,56.60
2023-05-22T11:03:17.193Z,56.30
2023-05-22T11:04:25.711Z,55.60
2023-05-22T11:05:30.415Z,55.30
2023-05-22T11:06:47.111Z,55.20
2023-05-22T11:07:50.175Z,55.50
2023-05-22T11:08:56.261Z,55.40
2023-05-22T11:10:01.523Z,55.30
2023-05-22T11:11:12.521Z,55.60
2023-05-22T11:12:30.579Z,55.30
2023-05-22T11:13:36.690Z,55.20
2023-05-22T11:14:39.425Z,55.40
2023-05-22T11:15:45.853Z,56.60
2023-05-22T11:16:48.324Z,56.60
2023-05-22T11:17:51.881Z,56.20
2023-05-22T11:19:22.041Z,56.40
2023-05-22T11:20:26.217Z,56.00
2023-05-22T11:21:31.108Z,56.00
2023-05-22T11:22:38.937Z,55.90
2023-05-22T11:23:41.805Z,55.30
2023-05-22T11:24:44.675Z,56.80
2023-05-22T11:25:47.251Z,56.00
2023-05-22T11:27:07.001Z,56.40
2023-05-22T11:28:11.467Z,56.10
2023-05-22T11:29:14.972Z,55.70
2023-05-22T11:30:18.224Z,55.50
2023-05-22T11:31:23.239Z,55.60
2023-05-22T11:32:27.319Z,55.40
2023-05-22T11:33:30.591Z,55.30
2023-05-22T11:34:34.021Z,55.40
2023-05-22T11:35:38.504Z,55.50
2023-05-22T11:36:41.185Z,55.90
2023-05-22T11:37:44.278Z,56.40
2023-05-22T11:38:47.107Z,55.90
2023-05-22T11:39:57.517Z,55.70
2023-05-22T11:41:00.135Z,56.40
2023-05-22T11:42:04.597Z,55.60
2023-05-22T11:43:07.160Z,55.70
2023-05-22T11:44:09.688Z,55.70
2023-05-22T11:45:12.296Z,56.00
2023-05-22T11:46:15.178Z,55.40
2023-05-22T11:47:18.261Z,55.70
2023-05-22T11:48:21.157Z,55.40
2023-05-22T11:49:26.707Z,55.40
2023-05-22T11:50:40.816Z,57.60
2023-05-22T11:51:48.858Z,56.60
2023-05-22T11:52:53.963Z,56.20
2023-05-22T11:53:57.505Z,55.70
2023-05-22T11:55:00.584Z,55.80
2023-05-22T11:56:06.794Z,57.70
2023-05-22T11:57:10.085Z,57.70
2023-05-22T11:58:13.101Z,57.20
2023-05-22T11:59:16.376Z,56.40
2023-05-22T12:00:20.478Z,56.40
2023-05-22T12:01:23.004Z,55.80
2023-05-22T12:02:26.447Z,55.60
2023-05-22T12:03:30.763Z,55.70
2023-05-22T12:04:33.815Z,55.80
2023-05-22T12:05:36.415Z,55.80
2023-05-22T12:06:38.961Z,55.70
2023-05-22T12:07:42.196Z,55.60
2023-05-22T12:08:45.378Z,55.20
2023-05-22T12:09:47.862Z,55.80
2023-05-22T12:10:51.641Z,55.50
2023-05-22T12:12:00.246Z,55.60
2023-05-22T12:13:03.140Z,55.40
2023-05-22T12:14:06.070Z,55.20
2023-05-22T12:15:09.491Z,55.40
2023-05-22T12:16:20.045Z,55.70
2023-05-22T12:17:23.056Z,56.00
2023-05-22T12:18:25.747Z,55.50
2023-05-22T12:19:28.252Z,55.60
2023-05-22T12:20:31.274Z,55.50
2023-05-22T12:21:33.879Z,55.20
2023-05-22T12:22:41.966Z,55.20
2023-05-22T12:23:50.032Z,55.10
2023-05-22T12:24:53.125Z,55.10
2023-05-22T12:26:10.870Z,55.40
2023-05-22T12:27:14.445Z,55.30
2023-05-22T12:28:17.032Z,55.00
2023-05-22T12:29:23.423Z,55.60
2023-05-22T12:30:25.788Z,54.90
2023-05-22T12:31:28.334Z,54.90
2023-05-22T12:32:30.830Z,55.00
2023-05-22T12:33:34.044Z,55.40
2023-05-22T12:34:46.894Z,54.90
2023-05-22T12:35:52.141Z,55.10
2023-05-22T12:36:54.544Z,54.70
2023-05-22T12:37:58.068Z,54.80
2023-05-22T12:39:00.509Z,55.00
2023-05-22T12:40:04.987Z,54.80
2023-05-22T12:41:08.291Z,54.50
2023-05-22T12:42:10.723Z,55.30
2023-05-22T12:43:13.333Z,54.60
2023-05-22T12:44:16.444Z,55.10
2023-05-22T12:45:18.995Z,54.60
2023-05-22T12:46:21.534Z,54.70
2023-05-22T12:47:25.217Z,55.00
2023-05-22T12:48:27.934Z,54.70
2023-05-22T12:49:30.341Z,54.60
2023-05-22T12:50:32.940Z,54.70
2023-05-22T12:51:36.256Z,54.60
2023-05-22T12:52:38.675Z,54.70
2023-05-22T12:53:41.039Z,54.90
2023-05-22T12:54:43.526Z,55.00
2023-05-22T12:55:46.174Z,54.30
2023-05-22T12:56:48.705Z,54.70
2023-05-22T12:57:52.009Z,54.60
2023-05-22T12:58:54.441Z,54.80
2023-05-22T12:59:56.837Z,54.80
2023-05-22T13:01:00.037Z,54.70
2023-05-22T13:02:04.098Z,54.50
2023-05-22T13:03:08.031Z,54.40
2023-05-22T13:04:10.922Z,55.00
2023-05-22T13:05:14.030Z,54.20
2023-05-22T13:06:16.724Z,54.30
2023-05-22T13:07:19.141Z,54.50
2023-05-22T13:08:23.548Z,54.20
2023-05-22T13:09:26.134Z,54.20
2023-05-22T13:10:29.208Z,54.80
2023-05-22T13:11:31.746Z,54.50
2023-05-22T13:12:38.496Z,54.30
2023-05-22T13:13:42.668Z,54.00
2023-05-22T13:14:45.210Z,54.00
2023-05-22T13:15:47.955Z,54.40
2023-05-22T13:16:51.385Z,54.10
2023-05-22T13:17:54.386Z,54.10
2023-05-22T13:18:58.674Z,54.30
2023-05-22T13:20:01.191Z,54.30
2023-05-22T13:21:04.073Z,54.40
2023-05-22T13:22:07.633Z,54.30
2023-05-22T13:23:10.428Z,54.20
2023-05-22T13:24:12.874Z,54.40
2023-05-22T13:25:15.623Z,54.00
2023-05-22T13:26:18.919Z,54.00
2023-05-22T13:27:22.000Z,54.20
2023-05-22T13:28:24.857Z,54.10
2023-05-22T13:29:27.714Z,54.30
2023-05-22T13:30:30.976Z,54.30
2023-05-22T13:31:37.864Z,54.50
2023-05-22T13:32:41.567Z,54.20
2023-05-22T13:33:44.194Z,54.50
2023-05-22T13:34:46.743Z,54.40
2023-05-22T13:35:49.501Z,54.20
2023-05-22T13:36:52.015Z,54.30
2023-05-22T13:37:54.439Z,54.30
2023-05-22T13:38:57.205Z,54.20
2023-05-22T13:39:59.969Z,54.00
2023-05-22T13:41:02.565Z,54.30
2023-05-22T13:42:05.411Z,54.50
2023-05-22T13:43:08.272Z,54.20
2023-05-22T13:44:11.140Z,54.20
2023-05-22T13:45:13.672Z,54.00
2023-05-22T13:46:17.772Z,54.00
2023-05-22T13:47:22.886Z,54.00
2023-05-22T13:48:25.855Z,54.00
2023-05-22T13:49:28.299Z,53.90
2023-05-22T13:50:30.747Z,54.00
2023-05-22T13:51:33.203Z,54.00
2023-05-22T13:52:35.980Z,54.00
2023-05-22T13:53:38.960Z,54.40
2023-05-22T13:54:42.284Z,54.10
2023-05-22T13:55:44.985Z,54.00
2023-05-22T13:56:50.188Z,54.30
2023-05-22T13:57:52.539Z,54.10
2023-05-22T13:58:55.081Z,54.00
2023-05-22T13:59:57.614Z,54.00
2023-05-22T14:01:00.857Z,54.00
2023-05-22T14:02:04.173Z,53.80
2023-05-22T14:03:07.146Z,53.90
2023-05-22T14:04:09.691Z,53.80
2023-05-22T14:05:12.450Z,54.10
2023-05-22T14:06:15.241Z,54.20
2023-05-22T14:07:18.234Z,53.90
2023-05-22T14:08:20.798Z,54.00
2023-05-22T14:09:23.911Z,54.00
2023-05-22T14:10:26.939Z,54.10
2023-05-22T14:11:30.337Z,54.00
2023-05-22T14:12:33.347Z,54.00
2023-05-22T14:13:36.256Z,53.70
2023-05-22T14:14:38.766Z,53.70
2023-05-22T14:15:43.139Z,54.00
2023-05-22T14:16:45.816Z,54.00
2023-05-22T14:17:48.356Z,54.10
2023-05-22T14:18:51.070Z,54.10
2023-05-22T14:19:54.037Z,53.90
2023-05-22T14:20:56.392Z,53.90
2023-05-22T14:21:58.893Z,53.80
2023-05-22T14:23:01.944Z,53.80
2023-05-22T14:24:05.092Z,53.70
2023-05-22T14:25:08.588Z,53.40
2023-05-22T14:26:11.988Z,53.40
2023-05-22T14:27:16.201Z,53.70
2023-05-22T14:28:18.668Z,53.50
2023-05-22T14:29:21.560Z,53.60
2023-05-22T14:30:24.027Z,53.50
2023-05-22T14:31:29.557Z,53.50
2023-05-22T14:32:33.093Z,53.30
2023-05-22T14:33:35.955Z,53.30
2023-05-22T14:34:38.397Z,53.20
2023-05-22T14:35:41.178Z,53.20
2023-05-22T14:36:44.714Z,53.10
2023-05-22T14:37:47.192Z,53.00
2023-05-22T14:38:50.023Z,53.10
2023-05-22T14:39:52.568Z,53.00
2023-05-22T14:40:54.958Z,53.00
2023-05-22T14:41:57.428Z,53.00
2023-05-22T14:43:01.131Z,52.90
2023-05-22T14:44:03.705Z,53.10
2023-05-22T14:45:07.555Z,53.10
2023-05-22T14:46:10.939Z,53.00
2023-05-22T14:47:14.036Z,53.10
2023-05-22T14:48:16.481Z,52.90
2023-05-22T14:49:19.054Z,53.00
2023-05-22T14:50:22.104Z,53.10
2023-05-22T14:51:24.769Z,53.00
2023-05-22T14:52:27.276Z,53.00
2023-05-22T14:53:29.827Z,52.90
2023-05-22T14:54:33.665Z,52.80
2023-05-22T14:55:36.237Z,52.90
2023-05-22T14:56:38.899Z,52.90
2023-05-22T14:57:41.284Z,52.90
2023-05-22T14:58:43.705Z,52.90
2023-05-22T14:59:46.774Z,52.90
2023-05-22T15:00:50.750Z,52.70
2023-05-22T15:01:53.212Z,52.80
2023-05-22T15:02:55.938Z,52.80
2023-05-22T15:03:58.915Z,52.90
2023-05-22T15:05:01.339Z,52.80
2023-05-22T15:06:04.216Z,52.80
2023-05-22T15:07:06.852Z,52.60
2023-05-22T15:08:09.376Z,52.80
2023-05-22T15:09:11.733Z,52.60
2023-05-22T15:10:14.235Z,52.80